sensor_id;sensor_type;location;lat;lon;timestamp;P1;durP1;ratioP1;P2;durP2;ratioP2
69998;SDS011;57339;52.156;5.372;2024-01-27T00:01:45;15.73;;;3.77;;
69998;SDS011;57339;52.156;5.372;2024-01-27T00:04:22;15.20;;;4.25;;
69998;SDS011;57339;52.156;5.372;2024-01-27T00:07:04;22.35;;;4.60;;
69998;SDS011;57339;52.156;5.372;2024-01-27T00:10:02;21.25;;;4.82;;
69998;SDS011;57339;52.156;5.372;2024-01-27T00:13:19;22.38;;;4.00;;
69998;SDS011;57339;52.156;5.372;2024-01-27T00:16:31;19.07;;;4.13;;
69998;SDS011;57339;52.156;5.372;2024-01-27T00:19:21;21.25;;;4.43;;
69998;SDS011;57339;52.156;5.372;2024-01-27T00:27:47;20.67;;;3.90;;
69998;SDS011;57339;52.156;5.372;2024-01-27T00:30:21;17.33;;;3.80;;
69998;SDS011;57339;52.156;5.372;2024-01-27T00:33:02;19.70;;;4.13;;
69998;SDS011;57339;52.156;5.372;2024-01-27T00:35:39;15.63;;;4.18;;
69998;SDS011;57339;52.156;5.372;2024-01-27T00:38:19;24.45;;;4.50;;
69998;SDS011;57339;52.156;5.372;2024-01-27T00:40:55;23.80;;;4.50;;
69998;SDS011;57339;52.156;5.372;2024-01-27T00:43:34;21.03;;;4.10;;
69998;SDS011;57339;52.156;5.372;2024-01-27T00:46:08;21.70;;;4.22;;
69998;SDS011;57339;52.156;5.372;2024-01-27T00:48:53;18.92;;;4.10;;
69998;SDS011;57339;52.156;5.372;2024-01-27T00:51:34;19.92;;;4.00;;
69998;SDS011;57339;52.156;5.372;2024-01-27T00:54:12;17.13;;;3.88;;
69998;SDS011;57339;52.156;5.372;2024-01-27T00:56:59;21.93;;;4.03;;
69998;SDS011;57339;52.156;5.372;2024-01-27T00:59:35;21.02;;;4.22;;
69998;SDS011;57339;52.156;5.372;2024-01-27T01:02:09;19.83;;;3.92;;
69998;SDS011;57339;52.156;5.372;2024-01-27T01:04:41;16.75;;;4.20;;
69998;SDS011;57339;52.156;5.372;2024-01-27T01:07:12;17.80;;;3.78;;
69998;SDS011;57339;52.156;5.372;2024-01-27T01:09:52;18.90;;;4.30;;
69998;SDS011;57339;52.156;5.372;2024-01-27T01:12:22;24.73;;;4.43;;
69998;SDS011;57339;52.156;5.372;2024-01-27T01:14:51;16.60;;;4.28;;
69998;SDS011;57339;52.156;5.372;2024-01-27T01:17:25;19.88;;;3.85;;
69998;SDS011;57339;52.156;5.372;2024-01-27T01:19:53;24.02;;;4.80;;
69998;SDS011;57339;52.156;5.372;2024-01-27T01:22:20;21.33;;;4.00;;
69998;SDS011;57339;52.156;5.372;2024-01-27T01:24:51;21.65;;;4.22;;
69998;SDS011;57339;52.156;5.372;2024-01-27T01:27:20;20.38;;;3.75;;
69998;SDS011;57339;52.156;5.372;2024-01-27T01:29:51;12.98;;;3.50;;
69998;SDS011;57339;52.156;5.372;2024-01-27T01:32:23;17.58;;;3.92;;
69998;SDS011;57339;52.156;5.372;2024-01-27T01:34:55;21.47;;;3.97;;
69998;SDS011;57339;52.156;5.372;2024-01-27T01:37:45;18.15;;;4.03;;
69998;SDS011;57339;52.156;5.372;2024-01-27T01:40:38;16.55;;;3.50;;
69998;SDS011;57339;52.156;5.372;2024-01-27T01:43:13;28.55;;;4.32;;
69998;SDS011;57339;52.156;5.372;2024-01-27T01:45:46;18.75;;;3.53;;
69998;SDS011;57339;52.156;5.372;2024-01-27T01:48:27;16.70;;;3.30;;
69998;SDS011;57339;52.156;5.372;2024-01-27T01:54:04;21.17;;;4.32;;
69998;SDS011;57339;52.156;5.372;2024-01-27T01:59:58;19.15;;;4.10;;
69998;SDS011;57339;52.156;5.372;2024-01-27T02:02:46;18.13;;;3.47;;
69998;SDS011;57339;52.156;5.372;2024-01-27T02:05:39;18.80;;;4.25;;
69998;SDS011;57339;52.156;5.372;2024-01-27T02:08:22;18.85;;;3.40;;
69998;SDS011;57339;52.156;5.372;2024-01-27T02:11:09;17.55;;;3.50;;
69998;SDS011;57339;52.156;5.372;2024-01-27T02:13:39;17.90;;;3.05;;
69998;SDS011;57339;52.156;5.372;2024-01-27T02:16:22;18.90;;;4.97;;
69998;SDS011;57339;52.156;5.372;2024-01-27T02:18:55;20.33;;;3.55;;
69998;SDS011;57339;52.156;5.372;2024-01-27T02:22:04;19.27;;;3.72;;
69998;SDS011;57339;52.156;5.372;2024-01-27T02:24:55;21.77;;;3.65;;
69998;SDS011;57339;52.156;5.372;2024-01-27T02:28:03;17.33;;;3.47;;
69998;SDS011;57339;52.156;5.372;2024-01-27T02:30:52;24.90;;;3.47;;
69998;SDS011;57339;52.156;5.372;2024-01-27T02:33:55;19.50;;;3.42;;
69998;SDS011;57339;52.156;5.372;2024-01-27T02:37:09;19.50;;;3.50;;
69998;SDS011;57339;52.156;5.372;2024-01-27T02:43:07;18.25;;;3.60;;
69998;SDS011;57339;52.156;5.372;2024-01-27T02:46:00;17.50;;;3.70;;
69998;SDS011;57339;52.156;5.372;2024-01-27T02:48:39;18.38;;;3.53;;
69998;SDS011;57339;52.156;5.372;2024-01-27T02:51:20;21.17;;;4.10;;
69998;SDS011;57339;52.156;5.372;2024-01-27T02:54:10;19.52;;;3.20;;
69998;SDS011;57339;52.156;5.372;2024-01-27T02:57:03;16.23;;;3.60;;
69998;SDS011;57339;52.156;5.372;2024-01-27T02:59:44;17.93;;;3.20;;
69998;SDS011;57339;52.156;5.372;2024-01-27T03:02:20;18.48;;;3.70;;
69998;SDS011;57339;52.156;5.372;2024-01-27T03:04:49;14.00;;;3.83;;
69998;SDS011;57339;52.156;5.372;2024-01-27T03:10:43;16.35;;;3.28;;
69998;SDS011;57339;52.156;5.372;2024-01-27T03:13:54;20.50;;;2.97;;
69998;SDS011;57339;52.156;5.372;2024-01-27T03:16:27;16.08;;;3.05;;
69998;SDS011;57339;52.156;5.372;2024-01-27T03:19:19;13.55;;;3.20;;
69998;SDS011;57339;52.156;5.372;2024-01-27T03:22:08;19.33;;;3.60;;
69998;SDS011;57339;52.156;5.372;2024-01-27T03:24:45;21.00;;;3.03;;
69998;SDS011;57339;52.156;5.372;2024-01-27T03:27:41;14.43;;;3.20;;
69998;SDS011;57339;52.156;5.372;2024-01-27T03:30:17;17.13;;;3.50;;
69998;SDS011;57339;52.156;5.372;2024-01-27T03:32:48;19.77;;;3.65;;
69998;SDS011;57339;52.156;5.372;2024-01-27T03:35:30;15.45;;;3.72;;
69998;SDS011;57339;52.156;5.372;2024-01-27T03:38:00;20.65;;;3.40;;
69998;SDS011;57339;52.156;5.372;2024-01-27T03:40:33;18.23;;;3.63;;
69998;SDS011;57339;52.156;5.372;2024-01-27T03:43:01;17.60;;;3.60;;
69998;SDS011;57339;52.156;5.372;2024-01-27T03:45:29;15.88;;;3.72;;
69998;SDS011;57339;52.156;5.372;2024-01-27T03:48:03;20.25;;;3.92;;
69998;SDS011;57339;52.156;5.372;2024-01-27T03:50:41;13.82;;;3.95;;
69998;SDS011;57339;52.156;5.372;2024-01-27T03:53:09;21.07;;;4.30;;
69998;SDS011;57339;52.156;5.372;2024-01-27T03:55:38;21.67;;;4.13;;
69998;SDS011;57339;52.156;5.372;2024-01-27T03:58:06;17.77;;;4.18;;
69998;SDS011;57339;52.156;5.372;2024-01-27T04:00:46;15.15;;;3.83;;
69998;SDS011;57339;52.156;5.372;2024-01-27T04:03:20;25.90;;;4.75;;
69998;SDS011;57339;52.156;5.372;2024-01-27T04:06:07;18.63;;;4.37;;
69998;SDS011;57339;52.156;5.372;2024-01-27T04:09:06;17.02;;;4.97;;
69998;SDS011;57339;52.156;5.372;2024-01-27T04:11:57;19.92;;;5.22;;
69998;SDS011;57339;52.156;5.372;2024-01-27T04:14:26;21.92;;;5.40;;
69998;SDS011;57339;52.156;5.372;2024-01-27T04:16:59;15.80;;;4.85;;
69998;SDS011;57339;52.156;5.372;2024-01-27T04:19:39;20.90;;;5.87;;
69998;SDS011;57339;52.156;5.372;2024-01-27T04:22:15;22.02;;;5.82;;
69998;SDS011;57339;52.156;5.372;2024-01-27T04:25:14;20.13;;;5.88;;
69998;SDS011;57339;52.156;5.372;2024-01-27T04:27:49;26.77;;;6.47;;
69998;SDS011;57339;52.156;5.372;2024-01-27T04:30:25;21.10;;;6.28;;
69998;SDS011;57339;52.156;5.372;2024-01-27T04:33:11;24.27;;;6.73;;
69998;SDS011;57339;52.156;5.372;2024-01-27T04:35:54;20.08;;;6.55;;
69998;SDS011;57339;52.156;5.372;2024-01-27T04:38:39;22.75;;;6.30;;
69998;SDS011;57339;52.156;5.372;2024-01-27T04:41:10;20.67;;;6.72;;
69998;SDS011;57339;52.156;5.372;2024-01-27T04:43:37;27.35;;;8.32;;
69998;SDS011;57339;52.156;5.372;2024-01-27T04:46:12;21.63;;;6.87;;
69998;SDS011;57339;52.156;5.372;2024-01-27T04:48:41;18.13;;;6.78;;
69998;SDS011;57339;52.156;5.372;2024-01-27T04:51:09;18.33;;;7.35;;
69998;SDS011;57339;52.156;5.372;2024-01-27T04:53:38;22.83;;;6.85;;
69998;SDS011;57339;52.156;5.372;2024-01-27T04:56:06;22.10;;;8.35;;
69998;SDS011;57339;52.156;5.372;2024-01-27T04:58:36;27.33;;;8.70;;
69998;SDS011;57339;52.156;5.372;2024-01-27T05:01:03;27.83;;;7.70;;
69998;SDS011;57339;52.156;5.372;2024-01-27T05:03:31;23.58;;;7.10;;
69998;SDS011;57339;52.156;5.372;2024-01-27T05:06:01;26.10;;;8.23;;
69998;SDS011;57339;52.156;5.372;2024-01-27T05:08:34;23.40;;;7.85;;
69998;SDS011;57339;52.156;5.372;2024-01-27T05:11:04;21.67;;;8.13;;
69998;SDS011;57339;52.156;5.372;2024-01-27T05:14:00;24.98;;;8.00;;
69998;SDS011;57339;52.156;5.372;2024-01-27T05:16:40;23.10;;;8.60;;
69998;SDS011;57339;52.156;5.372;2024-01-27T05:19:07;22.85;;;8.00;;
69998;SDS011;57339;52.156;5.372;2024-01-27T05:21:35;23.05;;;8.13;;
69998;SDS011;57339;52.156;5.372;2024-01-27T05:24:13;22.17;;;8.13;;
69998;SDS011;57339;52.156;5.372;2024-01-27T05:26:41;22.33;;;8.27;;
69998;SDS011;57339;52.156;5.372;2024-01-27T05:29:13;25.55;;;8.60;;
69998;SDS011;57339;52.156;5.372;2024-01-27T05:31:56;23.73;;;8.02;;
69998;SDS011;57339;52.156;5.372;2024-01-27T05:34:36;23.90;;;9.13;;
69998;SDS011;57339;52.156;5.372;2024-01-27T05:37:07;25.17;;;8.80;;
69998;SDS011;57339;52.156;5.372;2024-01-27T05:39:46;30.42;;;9.05;;
69998;SDS011;57339;52.156;5.372;2024-01-27T05:42:21;21.60;;;9.30;;
69998;SDS011;57339;52.156;5.372;2024-01-27T05:45:08;21.63;;;8.85;;
69998;SDS011;57339;52.156;5.372;2024-01-27T05:47:41;29.23;;;9.73;;
69998;SDS011;57339;52.156;5.372;2024-01-27T05:50:13;21.77;;;9.00;;
69998;SDS011;57339;52.156;5.372;2024-01-27T05:52:41;23.80;;;9.60;;
69998;SDS011;57339;52.156;5.372;2024-01-27T05:55:15;27.98;;;9.63;;
69998;SDS011;57339;52.156;5.372;2024-01-27T05:57:55;31.20;;;10.23;;
69998;SDS011;57339;52.156;5.372;2024-01-27T06:00:25;25.23;;;9.73;;
69998;SDS011;57339;52.156;5.372;2024-01-27T06:02:55;26.07;;;10.33;;
69998;SDS011;57339;52.156;5.372;2024-01-27T06:05:25;23.35;;;10.23;;
69998;SDS011;57339;52.156;5.372;2024-01-27T06:07:56;27.55;;;10.43;;
69998;SDS011;57339;52.156;5.372;2024-01-27T06:10:23;25.95;;;10.45;;
69998;SDS011;57339;52.156;5.372;2024-01-27T06:12:50;25.45;;;10.40;;
69998;SDS011;57339;52.156;5.372;2024-01-27T06:15:20;20.93;;;10.03;;
69998;SDS011;57339;52.156;5.372;2024-01-27T06:17:50;25.85;;;10.75;;
69998;SDS011;57339;52.156;5.372;2024-01-27T06:20:20;27.25;;;9.98;;
69998;SDS011;57339;52.156;5.372;2024-01-27T06:22:50;22.88;;;10.35;;
69998;SDS011;57339;52.156;5.372;2024-01-27T06:25:20;27.95;;;10.32;;
69998;SDS011;57339;52.156;5.372;2024-01-27T06:27:54;25.83;;;10.10;;
69998;SDS011;57339;52.156;5.372;2024-01-27T06:30:21;26.25;;;10.85;;
69998;SDS011;57339;52.156;5.372;2024-01-27T06:32:51;29.85;;;10.30;;
69998;SDS011;57339;52.156;5.372;2024-01-27T06:35:25;31.98;;;11.40;;
69998;SDS011;57339;52.156;5.372;2024-01-27T06:38:06;27.17;;;10.75;;
69998;SDS011;57339;52.156;5.372;2024-01-27T06:40:33;27.23;;;10.23;;
69998;SDS011;57339;52.156;5.372;2024-01-27T06:43:02;24.77;;;11.10;;
69998;SDS011;57339;52.156;5.372;2024-01-27T06:45:30;26.55;;;10.23;;
69998;SDS011;57339;52.156;5.372;2024-01-27T06:48:03;27.50;;;10.63;;
69998;SDS011;57339;52.156;5.372;2024-01-27T06:50:39;22.38;;;10.30;;
69998;SDS011;57339;52.156;5.372;2024-01-27T06:53:12;31.43;;;11.50;;
69998;SDS011;57339;52.156;5.372;2024-01-27T06:55:49;26.85;;;12.25;;
69998;SDS011;57339;52.156;5.372;2024-01-27T06:58:16;26.27;;;11.35;;
69998;SDS011;57339;52.156;5.372;2024-01-27T07:00:49;19.38;;;10.32;;
69998;SDS011;57339;52.156;5.372;2024-01-27T07:03:22;29.70;;;11.27;;
69998;SDS011;57339;52.156;5.372;2024-01-27T07:06:25;22.10;;;11.03;;
69998;SDS011;57339;52.156;5.372;2024-01-27T07:09:11;22.80;;;10.30;;
69998;SDS011;57339;52.156;5.372;2024-01-27T07:11:39;22.73;;;10.45;;
69998;SDS011;57339;52.156;5.372;2024-01-27T07:14:18;24.42;;;11.52;;
69998;SDS011;57339;52.156;5.372;2024-01-27T07:16:45;28.63;;;11.15;;
69998;SDS011;57339;52.156;5.372;2024-01-27T07:19:17;29.67;;;12.23;;
69998;SDS011;57339;52.156;5.372;2024-01-27T07:21:45;29.17;;;11.93;;
69998;SDS011;57339;52.156;5.372;2024-01-27T07:24:12;32.03;;;12.57;;
69998;SDS011;57339;52.156;5.372;2024-01-27T07:26:42;27.73;;;11.80;;
69998;SDS011;57339;52.156;5.372;2024-01-27T07:29:09;29.45;;;11.68;;
69998;SDS011;57339;52.156;5.372;2024-01-27T07:31:36;27.87;;;12.30;;
69998;SDS011;57339;52.156;5.372;2024-01-27T07:34:06;27.13;;;12.20;;
69998;SDS011;57339;52.156;5.372;2024-01-27T07:36:34;26.70;;;12.52;;
69998;SDS011;57339;52.156;5.372;2024-01-27T07:51:00;29.58;;;12.82;;
69998;SDS011;57339;52.156;5.372;2024-01-27T07:54:32;25.92;;;11.82;;
69998;SDS011;57339;52.156;5.372;2024-01-27T08:00:25;27.87;;;11.93;;
69998;SDS011;57339;52.156;5.372;2024-01-27T08:03:20;27.98;;;11.65;;
69998;SDS011;57339;52.156;5.372;2024-01-27T08:06:04;28.13;;;12.98;;
69998;SDS011;57339;52.156;5.372;2024-01-27T08:08:49;27.27;;;12.15;;
69998;SDS011;57339;52.156;5.372;2024-01-27T08:11:40;33.30;;;12.15;;
69998;SDS011;57339;52.156;5.372;2024-01-27T08:14:11;24.67;;;11.30;;
69998;SDS011;57339;52.156;5.372;2024-01-27T08:17:26;24.77;;;11.40;;
69998;SDS011;57339;52.156;5.372;2024-01-27T08:19:59;25.55;;;11.60;;
69998;SDS011;57339;52.156;5.372;2024-01-27T08:22:26;25.00;;;11.20;;
69998;SDS011;57339;52.156;5.372;2024-01-27T08:24:56;28.38;;;12.77;;
69998;SDS011;57339;52.156;5.372;2024-01-27T08:27:49;30.73;;;12.67;;
69998;SDS011;57339;52.156;5.372;2024-01-27T08:31:31;26.35;;;11.55;;
69998;SDS011;57339;52.156;5.372;2024-01-27T08:34:10;27.20;;;11.27;;
69998;SDS011;57339;52.156;5.372;2024-01-27T08:36:43;25.27;;;11.70;;
69998;SDS011;57339;52.156;5.372;2024-01-27T08:39:13;28.67;;;12.02;;
69998;SDS011;57339;52.156;5.372;2024-01-27T08:41:40;32.17;;;11.67;;
69998;SDS011;57339;52.156;5.372;2024-01-27T08:44:07;25.52;;;10.98;;
69998;SDS011;57339;52.156;5.372;2024-01-27T08:46:35;24.40;;;11.02;;
69998;SDS011;57339;52.156;5.372;2024-01-27T08:49:02;23.08;;;10.77;;
69998;SDS011;57339;52.156;5.372;2024-01-27T08:51:29;24.40;;;10.93;;
69998;SDS011;57339;52.156;5.372;2024-01-27T08:53:57;28.17;;;11.10;;
69998;SDS011;57339;52.156;5.372;2024-01-27T08:56:27;25.27;;;9.60;;
69998;SDS011;57339;52.156;5.372;2024-01-27T08:59:00;31.80;;;10.15;;
69998;SDS011;57339;52.156;5.372;2024-01-27T09:01:28;27.58;;;9.88;;
69998;SDS011;57339;52.156;5.372;2024-01-27T09:03:55;25.73;;;9.75;;
69998;SDS011;57339;52.156;5.372;2024-01-27T09:06:26;30.80;;;10.83;;
69998;SDS011;57339;52.156;5.372;2024-01-27T09:08:57;23.60;;;9.88;;
69998;SDS011;57339;52.156;5.372;2024-01-27T09:11:25;23.55;;;9.80;;
69998;SDS011;57339;52.156;5.372;2024-01-27T09:13:55;26.15;;;10.20;;
69998;SDS011;57339;52.156;5.372;2024-01-27T09:16:27;26.27;;;9.93;;
69998;SDS011;57339;52.156;5.372;2024-01-27T09:18:54;23.93;;;10.53;;
69998;SDS011;57339;52.156;5.372;2024-01-27T09:21:24;25.70;;;10.00;;
69998;SDS011;57339;52.156;5.372;2024-01-27T09:23:52;27.17;;;9.90;;
69998;SDS011;57339;52.156;5.372;2024-01-27T09:26:25;25.70;;;9.68;;
69998;SDS011;57339;52.156;5.372;2024-01-27T09:28:55;36.63;;;10.70;;
69998;SDS011;57339;52.156;5.372;2024-01-27T09:31:26;22.43;;;9.50;;
69998;SDS011;57339;52.156;5.372;2024-01-27T09:33:58;24.00;;;10.38;;
69998;SDS011;57339;52.156;5.372;2024-01-27T09:36:28;26.67;;;10.38;;
69998;SDS011;57339;52.156;5.372;2024-01-27T09:38:59;24.58;;;9.77;;
69998;SDS011;57339;52.156;5.372;2024-01-27T09:41:32;23.05;;;9.65;;
69998;SDS011;57339;52.156;5.372;2024-01-27T09:44:00;25.60;;;10.37;;
69998;SDS011;57339;52.156;5.372;2024-01-27T09:46:32;23.73;;;9.82;;
69998;SDS011;57339;52.156;5.372;2024-01-27T09:49:00;25.20;;;11.02;;
69998;SDS011;57339;52.156;5.372;2024-01-27T09:51:29;22.42;;;10.50;;
69998;SDS011;57339;52.156;5.372;2024-01-27T09:53:56;22.33;;;9.90;;
69998;SDS011;57339;52.156;5.372;2024-01-27T09:56:25;23.27;;;10.53;;
69998;SDS011;57339;52.156;5.372;2024-01-27T09:58:56;26.92;;;10.30;;
69998;SDS011;57339;52.156;5.372;2024-01-27T10:01:26;23.25;;;10.13;;
69998;SDS011;57339;52.156;5.372;2024-01-27T10:03:54;26.77;;;10.25;;
69998;SDS011;57339;52.156;5.372;2024-01-27T10:06:26;28.52;;;10.38;;
69998;SDS011;57339;52.156;5.372;2024-01-27T10:08:54;22.10;;;10.00;;
69998;SDS011;57339;52.156;5.372;2024-01-27T10:11:23;23.85;;;10.63;;
69998;SDS011;57339;52.156;5.372;2024-01-27T10:13:54;28.05;;;10.40;;
69998;SDS011;57339;52.156;5.372;2024-01-27T10:16:26;26.98;;;10.65;;
69998;SDS011;57339;52.156;5.372;2024-01-27T10:19:01;26.00;;;10.27;;
69998;SDS011;57339;52.156;5.372;2024-01-27T10:21:39;30.03;;;10.20;;
69998;SDS011;57339;52.156;5.372;2024-01-27T10:24:09;25.80;;;10.00;;
69998;SDS011;57339;52.156;5.372;2024-01-27T10:27:30;27.38;;;10.32;;
69998;SDS011;57339;52.156;5.372;2024-01-27T10:29:57;28.55;;;10.30;;
69998;SDS011;57339;52.156;5.372;2024-01-27T10:32:28;24.15;;;10.52;;
69998;SDS011;57339;52.156;5.372;2024-01-27T10:37:34;25.42;;;9.13;;
69998;SDS011;57339;52.156;5.372;2024-01-27T10:40:04;27.83;;;10.18;;
69998;SDS011;57339;52.156;5.372;2024-01-27T10:42:33;27.15;;;9.85;;
69998;SDS011;57339;52.156;5.372;2024-01-27T10:45:04;29.15;;;10.02;;
69998;SDS011;57339;52.156;5.372;2024-01-27T10:47:35;26.87;;;10.60;;
69998;SDS011;57339;52.156;5.372;2024-01-27T10:50:14;23.77;;;9.38;;
69998;SDS011;57339;52.156;5.372;2024-01-27T10:52:57;27.95;;;9.60;;
69998;SDS011;57339;52.156;5.372;2024-01-27T10:55:35;22.83;;;10.50;;
69998;SDS011;57339;52.156;5.372;2024-01-27T10:58:09;26.17;;;10.07;;
69998;SDS011;57339;52.156;5.372;2024-01-27T11:00:38;21.77;;;9.43;;
69998;SDS011;57339;52.156;5.372;2024-01-27T11:03:08;24.50;;;8.65;;
69998;SDS011;57339;52.156;5.372;2024-01-27T11:05:38;23.83;;;9.90;;
69998;SDS011;57339;52.156;5.372;2024-01-27T11:08:18;24.85;;;9.57;;
69998;SDS011;57339;52.156;5.372;2024-01-27T11:10:46;22.40;;;9.88;;
69998;SDS011;57339;52.156;5.372;2024-01-27T11:13:16;19.80;;;8.60;;
69998;SDS011;57339;52.156;5.372;2024-01-27T11:15:51;26.80;;;9.02;;
69998;SDS011;57339;52.156;5.372;2024-01-27T11:18:21;20.13;;;8.52;;
69998;SDS011;57339;52.156;5.372;2024-01-27T11:20:54;21.42;;;9.02;;
69998;SDS011;57339;52.156;5.372;2024-01-27T11:23:32;26.52;;;8.52;;
69998;SDS011;57339;52.156;5.372;2024-01-27T11:26:05;18.73;;;8.33;;
69998;SDS011;57339;52.156;5.372;2024-01-27T11:28:33;26.90;;;8.55;;
69998;SDS011;57339;52.156;5.372;2024-01-27T11:31:11;21.60;;;7.63;;
69998;SDS011;57339;52.156;5.372;2024-01-27T11:33:46;19.48;;;7.63;;
69998;SDS011;57339;52.156;5.372;2024-01-27T11:36:29;24.08;;;8.05;;
69998;SDS011;57339;52.156;5.372;2024-01-27T11:39:05;18.93;;;7.63;;
69998;SDS011;57339;52.156;5.372;2024-01-27T11:42:04;25.25;;;8.95;;
69998;SDS011;57339;52.156;5.372;2024-01-27T11:44:37;25.63;;;8.07;;
69998;SDS011;57339;52.156;5.372;2024-01-27T11:47:19;20.42;;;8.02;;
69998;SDS011;57339;52.156;5.372;2024-01-27T11:49:54;18.85;;;7.35;;
69998;SDS011;57339;52.156;5.372;2024-01-27T11:55:23;24.25;;;7.15;;
69998;SDS011;57339;52.156;5.372;2024-01-27T11:58:00;22.67;;;7.45;;
69998;SDS011;57339;52.156;5.372;2024-01-27T12:00:29;21.42;;;7.50;;
69998;SDS011;57339;52.156;5.372;2024-01-27T12:03:08;20.67;;;7.18;;
69998;SDS011;57339;52.156;5.372;2024-01-27T12:05:35;20.87;;;6.90;;
69998;SDS011;57339;52.156;5.372;2024-01-27T12:08:15;19.40;;;7.05;;
69998;SDS011;57339;52.156;5.372;2024-01-27T12:14:03;20.17;;;6.60;;
69998;SDS011;57339;52.156;5.372;2024-01-27T12:16:38;19.27;;;6.95;;
69998;SDS011;57339;52.156;5.372;2024-01-27T12:19:06;17.77;;;6.50;;
69998;SDS011;57339;52.156;5.372;2024-01-27T12:21:37;19.83;;;6.90;;
69998;SDS011;57339;52.156;5.372;2024-01-27T12:24:13;19.42;;;6.70;;
69998;SDS011;57339;52.156;5.372;2024-01-27T12:26:50;24.02;;;6.40;;
69998;SDS011;57339;52.156;5.372;2024-01-27T12:29:20;19.67;;;6.13;;
69998;SDS011;57339;52.156;5.372;2024-01-27T12:38:11;19.13;;;5.28;;
69998;SDS011;57339;52.156;5.372;2024-01-27T12:54:31;19.45;;;4.93;;
69998;SDS011;57339;52.156;5.372;2024-01-27T12:57:14;16.80;;;4.95;;
69998;SDS011;57339;52.156;5.372;2024-01-27T13:02:50;17.73;;;5.30;;
69998;SDS011;57339;52.156;5.372;2024-01-27T13:05:26;19.50;;;5.40;;
69998;SDS011;57339;52.156;5.372;2024-01-27T13:11:16;17.85;;;5.13;;
69998;SDS011;57339;52.156;5.372;2024-01-27T13:22:47;17.20;;;5.18;;
69998;SDS011;57339;52.156;5.372;2024-01-27T13:25:29;21.08;;;5.25;;
69998;SDS011;57339;52.156;5.372;2024-01-27T13:28:28;19.80;;;4.73;;
69998;SDS011;57339;52.156;5.372;2024-01-27T13:30:56;17.33;;;5.35;;
69998;SDS011;57339;52.156;5.372;2024-01-27T13:33:27;17.65;;;4.68;;
69998;SDS011;57339;52.156;5.372;2024-01-27T13:35:56;19.13;;;4.97;;
69998;SDS011;57339;52.156;5.372;2024-01-27T13:38:30;18.52;;;5.88;;
69998;SDS011;57339;52.156;5.372;2024-01-27T13:40:58;20.70;;;5.30;;
69998;SDS011;57339;52.156;5.372;2024-01-27T13:43:26;19.95;;;5.07;;
69998;SDS011;57339;52.156;5.372;2024-01-27T13:45:56;14.07;;;5.15;;
69998;SDS011;57339;52.156;5.372;2024-01-27T13:48:33;20.33;;;5.57;;
69998;SDS011;57339;52.156;5.372;2024-01-27T13:51:01;17.08;;;5.28;;
69998;SDS011;57339;52.156;5.372;2024-01-27T13:53:29;18.87;;;5.40;;
69998;SDS011;57339;52.156;5.372;2024-01-27T13:56:14;18.73;;;4.60;;
69998;SDS011;57339;52.156;5.372;2024-01-27T13:59:08;21.15;;;4.95;;
69998;SDS011;57339;52.156;5.372;2024-01-27T14:02:00;20.77;;;5.20;;
69998;SDS011;57339;52.156;5.372;2024-01-27T14:04:27;19.38;;;5.00;;
69998;SDS011;57339;52.156;5.372;2024-01-27T14:06:56;19.17;;;5.60;;
69998;SDS011;57339;52.156;5.372;2024-01-27T14:09:26;19.25;;;5.75;;
69998;SDS011;57339;52.156;5.372;2024-01-27T14:11:59;17.05;;;5.50;;
69998;SDS011;57339;52.156;5.372;2024-01-27T14:14:30;25.00;;;5.60;;
69998;SDS011;57339;52.156;5.372;2024-01-27T14:16:58;23.52;;;6.00;;
69998;SDS011;57339;52.156;5.372;2024-01-27T14:19:26;25.23;;;6.03;;
69998;SDS011;57339;52.156;5.372;2024-01-27T14:21:53;18.92;;;6.18;;
69998;SDS011;57339;52.156;5.372;2024-01-27T14:24:22;22.67;;;5.80;;
69998;SDS011;57339;52.156;5.372;2024-01-27T14:26:55;22.90;;;6.25;;
69998;SDS011;57339;52.156;5.372;2024-01-27T14:29:30;23.10;;;6.03;;
69998;SDS011;57339;52.156;5.372;2024-01-27T14:32:00;25.13;;;7.07;;
69998;SDS011;57339;52.156;5.372;2024-01-27T14:44:19;22.70;;;6.43;;
69998;SDS011;57339;52.156;5.372;2024-01-27T14:46:46;20.73;;;6.53;;
69998;SDS011;57339;52.156;5.372;2024-01-27T14:49:15;21.00;;;6.78;;
69998;SDS011;57339;52.156;5.372;2024-01-27T14:51:47;24.77;;;6.47;;
69998;SDS011;57339;52.156;5.372;2024-01-27T14:54:16;20.52;;;6.60;;
69998;SDS011;57339;52.156;5.372;2024-01-27T14:56:46;17.38;;;6.40;;
69998;SDS011;57339;52.156;5.372;2024-01-27T14:59:17;19.93;;;6.47;;
69998;SDS011;57339;52.156;5.372;2024-01-27T15:01:44;23.70;;;6.78;;
69998;SDS011;57339;52.156;5.372;2024-01-27T15:04:14;18.95;;;6.90;;
69998;SDS011;57339;52.156;5.372;2024-01-27T15:06:46;24.52;;;6.25;;
69998;SDS011;57339;52.156;5.372;2024-01-27T15:09:13;19.45;;;6.53;;
69998;SDS011;57339;52.156;5.372;2024-01-27T15:11:43;21.63;;;6.37;;
69998;SDS011;57339;52.156;5.372;2024-01-27T15:14:21;20.92;;;6.30;;
69998;SDS011;57339;52.156;5.372;2024-01-27T15:17:04;20.65;;;6.55;;
69998;SDS011;57339;52.156;5.372;2024-01-27T15:19:33;19.02;;;6.07;;
69998;SDS011;57339;52.156;5.372;2024-01-27T15:22:06;17.67;;;6.00;;
69998;SDS011;57339;52.156;5.372;2024-01-27T15:24:43;27.37;;;6.40;;
69998;SDS011;57339;52.156;5.372;2024-01-27T15:31:21;25.08;;;6.38;;
69998;SDS011;57339;52.156;5.372;2024-01-27T15:33:49;23.05;;;6.32;;
69998;SDS011;57339;52.156;5.372;2024-01-27T15:36:26;23.08;;;5.75;;
69998;SDS011;57339;52.156;5.372;2024-01-27T15:39:09;22.07;;;6.10;;
69998;SDS011;57339;52.156;5.372;2024-01-27T15:42:09;22.00;;;6.50;;
69998;SDS011;57339;52.156;5.372;2024-01-27T15:44:51;15.95;;;5.57;;
69998;SDS011;57339;52.156;5.372;2024-01-27T15:47:18;19.83;;;6.20;;
69998;SDS011;57339;52.156;5.372;2024-01-27T15:49:46;20.38;;;5.65;;
69998;SDS011;57339;52.156;5.372;2024-01-27T15:52:16;21.43;;;5.93;;
69998;SDS011;57339;52.156;5.372;2024-01-27T15:54:57;22.10;;;6.07;;
69998;SDS011;57339;52.156;5.372;2024-01-27T15:57:30;20.05;;;5.65;;
69998;SDS011;57339;52.156;5.372;2024-01-27T16:00:04;19.65;;;6.00;;
69998;SDS011;57339;52.156;5.372;2024-01-27T16:02:32;21.02;;;6.90;;
69998;SDS011;57339;52.156;5.372;2024-01-27T16:05:13;21.60;;;6.63;;
69998;SDS011;57339;52.156;5.372;2024-01-27T16:23:27;19.95;;;6.78;;
69998;SDS011;57339;52.156;5.372;2024-01-27T16:26:36;21.83;;;6.18;;
69998;SDS011;57339;52.156;5.372;2024-01-27T16:30:30;20.70;;;6.90;;
69998;SDS011;57339;52.156;5.372;2024-01-27T16:33:36;20.40;;;7.45;;
69998;SDS011;57339;52.156;5.372;2024-01-27T16:36:13;23.60;;;7.17;;
69998;SDS011;57339;52.156;5.372;2024-01-27T16:39:03;18.20;;;6.70;;
69998;SDS011;57339;52.156;5.372;2024-01-27T16:42:31;19.80;;;8.75;;
69998;SDS011;57339;52.156;5.372;2024-01-27T16:45:31;30.67;;;8.68;;
69998;SDS011;57339;52.156;5.372;2024-01-27T16:48:13;27.38;;;10.25;;
69998;SDS011;57339;52.156;5.372;2024-01-27T16:51:27;22.93;;;9.17;;
69998;SDS011;57339;52.156;5.372;2024-01-27T16:54:48;17.85;;;7.90;;
69998;SDS011;57339;52.156;5.372;2024-01-27T16:57:38;24.50;;;8.13;;
69998;SDS011;57339;52.156;5.372;2024-01-27T17:07:50;19.10;;;7.83;;
69998;SDS011;57339;52.156;5.372;2024-01-27T17:14:09;27.30;;;8.43;;
69998;SDS011;57339;52.156;5.372;2024-01-27T17:17:08;27.80;;;8.93;;
69998;SDS011;57339;52.156;5.372;2024-01-27T17:19:35;25.67;;;9.00;;
69998;SDS011;57339;52.156;5.372;2024-01-27T17:22:21;28.07;;;9.70;;
69998;SDS011;57339;52.156;5.372;2024-01-27T17:24:58;27.50;;;8.63;;
69998;SDS011;57339;52.156;5.372;2024-01-27T17:27:39;26.95;;;9.45;;